Keene, Canada
Current Conditions -  °F | °C
As of 4:00 PM on Friday 24 Oct 2014 (Local Time) from CYPQ Reporting Station
Clear Clear  
Wind Chill: 59°   Ceiling: Unl
Heat Index: 59°   Visibility: 9mi
Dew Point: 36°   Wind: 13mph
Humidity: 42%   Direction: 300°WNW
Pressure: 29.91"   Gusts: 18mph
Location:  44.24°N, 78.16°W
Report Text: CYPQ 242000Z AUTO 30011G16KT 9SM CLR 15/02 A2991 RMK SLP131 DENSITY ALT 700FT
Loading
Personal Weather Stations






























Interactive Weather Map
Tropical Storm Tracking
New forecast layout! Learn more

10-Day Weather Forecast

Advertisements
Track Severe Weather on mobile